Time;durP1;ratioP1;P1;durP2;ratioP2;P2;SDS_P1;SDS_P2;PMS_P1;PMS_P2;Temp;Humidity;BMP_temperature;BMP_pressure;BME280_temperature;BME280_humidity;BME280_pressure;Samples;Min_cycle;Max_cycle;Signal;HPM_P1;HPM_P2
2023/02/04 00:00:22;;;;;;;25.23;6.43;;;10.40;99.90;;;;;;4995882;28;20038;-71
2023/02/04 00:02:47;;;;;;;20.95;5.65;;;10.30;99.90;;;;;;4997107;28;20030;-72
2023/02/04 00:05:15;;;;;;;16.90;5.00;;;10.40;99.90;;;;;;4995716;28;20023;-77
2023/02/04 00:07:40;;;;;;;21.65;6.07;;;10.40;99.90;;;;;;4999909;28;20029;-72
2023/02/04 00:10:06;;;;;;;19.45;5.60;;;10.30;99.90;;;;;;4997663;28;21896;-71
2023/02/04 00:12:33;;;;;;;14.32;5.30;;;10.40;99.90;;;;;;4997960;28;20026;-72
2023/02/04 00:14:59;;;;;;;20.30;5.85;;;10.40;99.90;;;;;;5002327;28;20026;-78
2023/02/04 00:17:24;;;;;;;21.98;6.15;;;10.40;99.90;;;;;;4992236;28;20104;-77
2023/02/04 00:19:50;;;;;;;21.92;5.63;;;10.40;99.90;;;;;;4994170;28;20046;-74
2023/02/04 00:22:16;;;;;;;15.68;5.80;;;10.40;99.90;;;;;;4997094;28;20101;-71
2023/02/04 00:24:49;;;;;;;15.27;6.45;;;10.40;99.90;;;;;;4994350;28;20045;-77
2023/02/04 00:27:14;;;;;;;18.10;6.65;;;10.30;99.90;;;;;;4998392;28;20027;-71
2023/02/04 00:29:40;;;;;;;17.45;6.15;;;10.40;99.90;;;;;;5001485;28;20026;-72
2023/02/04 00:32:06;;;;;;;20.30;5.72;;;10.30;99.90;;;;;;4993521;28;20100;-72
2023/02/04 00:34:31;;;;;;;20.15;5.47;;;10.30;99.90;;;;;;4996776;28;20026;-73
2023/02/04 00:36:57;;;;;;;17.63;5.05;;;10.30;99.90;;;;;;4993826;28;20387;-73
2023/02/04 00:39:23;;;;;;;19.20;5.80;;;10.30;99.90;;;;;;4993744;28;20398;-72
2023/02/04 00:41:48;;;;;;;25.38;5.90;;;10.20;99.90;;;;;;4994325;28;20030;-72
2023/02/04 00:44:14;;;;;;;18.85;5.25;;;10.20;99.90;;;;;;4997273;28;20491;-71
2023/02/04 00:46:42;;;;;;;22.67;5.45;;;10.20;99.90;;;;;;5001617;28;20034;-78
2023/02/04 00:49:12;;;;;;;20.55;5.55;;;10.20;99.90;;;;;;4997855;28;20113;-76
2023/02/04 00:51:38;;;;;;;15.50;4.50;;;10.10;99.90;;;;;;5000467;28;20042;-76
2023/02/04 00:54:05;;;;;;;15.30;4.18;;;10.20;99.90;;;;;;4999378;28;20034;-71
2023/02/04 00:56:31;;;;;;;20.83;4.65;;;10.20;99.90;;;;;;5001302;28;20023;-72
2023/02/04 00:58:57;;;;;;;19.00;5.10;;;10.10;99.90;;;;;;4998802;28;20074;-71
2023/02/04 01:01:23;;;;;;;26.30;4.88;;;10.10;99.90;;;;;;5000731;28;20063;-74
2023/02/04 01:03:48;;;;;;;23.92;5.05;;;10.20;99.90;;;;;;5000932;28;20080;-71
2023/02/04 01:06:14;;;;;;;16.67;4.70;;;10.20;99.90;;;;;;5000443;28;20553;-75
2023/02/04 01:08:39;;;;;;;23.17;4.80;;;10.20;99.90;;;;;;5000806;28;20490;-70
2023/02/04 01:11:07;;;;;;;22.25;4.30;;;10.20;99.90;;;;;;5000432;28;20065;-72
2023/02/04 01:13:33;;;;;;;20.10;4.63;;;10.30;99.90;;;;;;5001663;28;20103;-71
2023/02/04 01:15:58;;;;;;;24.50;5.10;;;10.20;99.90;;;;;;4999188;28;20458;-71
2023/02/04 01:18:27;;;;;;;20.13;5.05;;;10.20;99.90;;;;;;4997866;28;20037;-72
2023/02/04 01:20:52;;;;;;;19.73;6.32;;;10.20;99.90;;;;;;4999580;28;20021;-75
2023/02/04 01:23:18;;;;;;;16.63;5.25;;;10.20;99.90;;;;;;4999458;28;20036;-74
2023/02/04 01:25:46;;;;;;;18.30;5.75;;;10.20;99.90;;;;;;4998186;28;20030;-76
2023/02/04 01:28:12;;;;;;;21.58;6.43;;;10.20;99.90;;;;;;5003452;28;20095;-73
2023/02/04 01:30:38;;;;;;;21.45;6.47;;;10.20;99.90;;;;;;4999203;28;20434;-72
2023/02/04 01:33:03;;;;;;;16.77;6.82;;;10.20;99.90;;;;;;4995295;28;20030;-74
2023/02/04 01:35:29;;;;;;;21.25;5.80;;;10.20;99.90;;;;;;4996855;28;20037;-72
2023/02/04 01:37:54;;;;;;;15.65;5.95;;;10.20;99.90;;;;;;5001261;28;20064;-73
2023/02/04 01:40:20;;;;;;;21.20;5.95;;;10.20;99.90;;;;;;4996379;28;20105;-78
2023/02/04 01:42:46;;;;;;;16.52;5.60;;;10.20;99.90;;;;;;5000844;28;20391;-79
2023/02/04 01:45:12;;;;;;;23.42;7.05;;;10.20;99.90;;;;;;4996344;28;20030;-79
2023/02/04 01:47:38;;;;;;;23.08;6.32;;;10.10;99.90;;;;;;4997600;28;20030;-78
2023/02/04 01:50:05;;;;;;;24.13;6.28;;;10.20;99.90;;;;;;4995172;28;20049;-77
2023/02/04 01:52:35;;;;;;;15.23;5.60;;;10.20;99.90;;;;;;4997878;28;20042;-76
2023/02/04 01:55:01;;;;;;;23.70;6.32;;;10.20;99.90;;;;;;4994670;28;20054;-79
2023/02/04 01:57:27;;;;;;;13.13;5.95;;;10.20;99.90;;;;;;4996257;28;20068;-79
2023/02/04 01:59:55;;;;;;;21.05;5.38;;;10.20;99.90;;;;;;4993456;28;20029;-75
2023/02/04 02:02:40;;;;;;;23.05;6.05;;;10.10;99.90;;;;;;4993901;28;20385;-75
2023/02/04 02:05:15;;;;;;;22.45;6.20;;;10.10;99.90;;;;;;4995279;28;20026;-76
2023/02/04 02:07:41;;;;;;;26.23;7.05;;;10.10;99.90;;;;;;4995788;28;20088;-72
2023/02/04 02:10:09;;;;;;;24.65;7.43;;;10.10;99.90;;;;;;4994612;28;20028;-75
2023/02/04 02:12:35;;;;;;;22.48;6.28;;;10.10;99.90;;;;;;4999387;28;20152;-72
2023/02/04 02:15:01;;;;;;;22.45;6.57;;;10.10;99.90;;;;;;4994517;28;20102;-74
2023/02/04 02:17:27;;;;;;;23.33;6.45;;;10.10;99.90;;;;;;4996586;28;20121;-74
2023/02/04 02:19:52;;;;;;;22.02;6.93;;;10.10;99.90;;;;;;4994911;28;20077;-78
2023/02/04 02:22:36;;;;;;;22.65;7.18;;;10.00;99.90;;;;;;4994433;28;20030;-77
2023/02/04 02:25:10;;;;;;;16.63;6.13;;;10.00;99.90;;;;;;4994584;28;20037;-75
2023/02/04 02:27:36;;;;;;;21.40;6.28;;;10.00;99.90;;;;;;4997799;28;20033;-72
2023/02/04 02:30:02;;;;;;;21.27;6.70;;;10.00;99.90;;;;;;4994506;28;20030;-78
2023/02/04 02:32:28;;;;;;;15.75;5.55;;;10.00;99.90;;;;;;4994509;28;20356;-73
2023/02/04 02:34:53;;;;;;;24.58;6.47;;;10.00;99.90;;;;;;4995272;28;20044;-80
2023/02/04 02:37:19;;;;;;;21.38;6.72;;;9.90;99.90;;;;;;4993144;28;20034;-74
2023/02/04 02:39:45;;;;;;;19.52;5.35;;;9.90;99.90;;;;;;4993710;28;20378;-76
2023/02/04 02:42:15;;;;;;;28.33;7.00;;;9.90;99.90;;;;;;4996591;28;20033;-76
2023/02/04 02:44:41;;;;;;;16.73;6.22;;;9.80;99.90;;;;;;4992419;28;20533;-76
2023/02/04 02:47:13;;;;;;;20.90;6.22;;;9.70;99.90;;;;;;4995006;28;20068;-77
2023/02/04 02:49:39;;;;;;;21.08;6.13;;;9.80;99.90;;;;;;4995262;28;20494;-75
2023/02/04 02:52:05;;;;;;;20.80;6.05;;;9.80;99.90;;;;;;4992456;28;20494;-78
2023/02/04 02:54:32;;;;;;;21.88;5.97;;;9.70;99.90;;;;;;4995895;28;20049;-79
2023/02/04 02:56:58;;;;;;;13.75;5.57;;;9.70;99.90;;;;;;4999098;28;20952;-80
2023/02/04 02:59:25;;;;;;;14.05;5.15;;;9.70;99.90;;;;;;4996628;28;20036;-80
2023/02/04 03:01:56;;;;;;;16.00;5.72;;;9.60;99.90;;;;;;5009716;28;20382;-78
2023/02/04 03:04:24;;;;;;;12.02;4.85;;;9.60;99.90;;;;;;5012357;28;20030;-80
2023/02/04 03:06:51;;;;;;;19.73;6.43;;;9.60;99.90;;;;;;5013237;28;20049;-77
2023/02/04 03:09:18;;;;;;;19.15;5.90;;;9.60;99.90;;;;;;5012759;28;20014;-80
2023/02/04 03:11:43;;;;;;;22.35;5.82;;;9.60;99.90;;;;;;5009227;28;20050;-80
2023/02/04 03:14:09;;;;;;;17.02;5.40;;;9.50;99.90;;;;;;5005357;28;20065;-80
2023/02/04 03:16:36;;;;;;;22.67;5.80;;;9.50;99.90;;;;;;5011015;28;20018;-77
2023/02/04 03:19:03;;;;;;;17.42;6.60;;;9.50;99.90;;;;;;5012540;28;20022;-80
2023/02/04 03:21:29;;;;;;;14.20;5.43;;;9.50;99.90;;;;;;5012302;28;20466;-77
2023/02/04 03:23:55;;;;;;;21.77;6.18;;;9.40;99.90;;;;;;5008762;28;20034;-80
2023/02/04 03:26:25;;;;;;;20.13;6.00;;;9.40;99.90;;;;;;5002370;28;20546;-80
2023/02/04 03:28:52;;;;;;;20.50;6.32;;;9.40;99.90;;;;;;5007323;28;21492;-79
2023/02/04 03:31:18;;;;;;;18.52;5.57;;;9.40;99.90;;;;;;5008841;28;20026;-77
2023/02/04 03:33:44;;;;;;;14.70;6.55;;;9.30;99.90;;;;;;5010179;28;20038;-79
2023/02/04 03:36:09;;;;;;;16.63;5.93;;;9.30;99.90;;;;;;5010662;28;20251;-79
2023/02/04 03:38:35;;;;;;;18.70;6.35;;;9.30;99.90;;;;;;5014008;28;20117;-80
2023/02/04 03:41:00;;;;;;;14.93;5.80;;;9.30;99.90;;;;;;5014137;28;20018;-80
2023/02/04 03:43:26;;;;;;;17.50;6.47;;;9.20;99.90;;;;;;5011086;28;20363;-75
2023/02/04 03:45:52;;;;;;;13.27;5.18;;;9.20;99.90;;;;;;5011145;28;20034;-74
2023/02/04 03:48:18;;;;;;;10.60;5.18;;;9.20;99.90;;;;;;5010573;28;20056;-79
2023/02/04 03:50:43;;;;;;;16.15;6.05;;;9.20;99.90;;;;;;5009394;28;20069;-79
2023/02/04 03:53:09;;;;;;;13.57;6.38;;;9.10;99.90;;;;;;5009976;28;20026;-80
2023/02/04 03:55:35;;;;;;;15.57;5.72;;;9.10;99.90;;;;;;5006496;28;20022;-80
2023/02/04 03:58:01;;;;;;;13.38;5.03;;;9.10;99.90;;;;;;5008572;28;20490;-79
2023/02/04 04:00:28;;;;;;;22.92;6.30;;;9.00;99.90;;;;;;5011916;28;20014;-79
2023/02/04 04:02:53;;;;;;;14.02;6.28;;;9.10;99.90;;;;;;5008649;28;20091;-79
2023/02/04 04:05:19;;;;;;;17.70;6.45;;;9.00;99.90;;;;;;5008233;28;20038;-78
2023/02/04 04:07:44;;;;;;;21.77;7.03;;;9.00;99.90;;;;;;5011033;28;20026;-79
2023/02/04 04:10:10;;;;;;;15.70;7.03;;;9.00;99.90;;;;;;5008263;28;20031;-79
2023/02/04 04:12:36;;;;;;;18.65;7.00;;;9.00;99.90;;;;;;5008865;28;20022;-77
2023/02/04 04:15:02;;;;;;;19.80;6.60;;;9.00;99.90;;;;;;5009798;28;20108;-72
2023/02/04 04:17:27;;;;;;;16.08;6.63;;;9.00;99.90;;;;;;5009117;28;20080;-72
2023/02/04 04:19:53;;;;;;;15.20;7.03;;;9.00;99.90;;;;;;5010904;28;20030;-78
2023/02/04 04:22:19;;;;;;;17.63;7.70;;;8.90;99.90;;;;;;5016208;28;20053;-72
2023/02/04 04:24:44;;;;;;;20.02;7.20;;;8.90;99.90;;;;;;5013590;28;20080;-75
2023/02/04 04:27:10;;;;;;;20.58;7.13;;;8.90;99.90;;;;;;5014307;28;20030;-73
2023/02/04 04:29:35;;;;;;;17.20;6.55;;;8.90;99.90;;;;;;5012523;28;20053;-75
2023/02/04 04:32:01;;;;;;;17.17;6.63;;;8.90;99.90;;;;;;5012768;28;20034;-71
2023/02/04 04:34:27;;;;;;;24.10;7.20;;;8.90;99.90;;;;;;5012101;28;20080;-74
2023/02/04 04:36:52;;;;;;;15.27;6.78;;;8.90;99.90;;;;;;5010502;28;20092;-80
2023/02/04 04:39:18;;;;;;;23.73;7.22;;;8.80;99.90;;;;;;5013219;28;20033;-76
2023/02/04 04:41:43;;;;;;;22.13;7.88;;;8.90;99.90;;;;;;5010855;28;20048;-80
2023/02/04 04:44:09;;;;;;;37.13;9.85;;;8.90;99.90;;;;;;5011138;28;20038;-76
2023/02/04 04:46:34;;;;;;;32.70;9.85;;;8.80;99.90;;;;;;5010737;28;20026;-72
2023/02/04 04:49:00;;;;;;;33.60;11.02;;;8.80;99.90;;;;;;5015331;28;20040;-77
2023/02/04 04:51:26;;;;;;;41.53;13.25;;;8.80;99.90;;;;;;5010801;28;20022;-76
2023/02/04 04:53:51;;;;;;;38.80;12.90;;;8.70;99.90;;;;;;5017531;28;20052;-78
2023/02/04 04:56:18;;;;;;;29.75;12.13;;;8.70;99.90;;;;;;5009948;28;20057;-74
2023/02/04 04:58:43;;;;;;;32.08;10.60;;;8.70;99.90;;;;;;5012963;28;20387;-74
2023/02/04 05:01:09;;;;;;;23.90;9.13;;;8.70;99.90;;;;;;5015448;28;20030;-74
2023/02/04 05:03:34;;;;;;;32.72;9.15;;;8.70;99.90;;;;;;5018374;28;20437;-76
2023/02/04 05:06:00;;;;;;;23.70;8.38;;;8.70;99.90;;;;;;5007899;28;20061;-75
2023/02/04 05:08:26;;;;;;;26.83;9.52;;;8.80;99.90;;;;;;5013374;28;20033;-74
2023/02/04 05:10:51;;;;;;;25.50;8.25;;;8.80;99.90;;;;;;5015287;28;20037;-72
2023/02/04 05:13:17;;;;;;;22.33;8.75;;;8.80;99.90;;;;;;5013903;28;20529;-73
2023/02/04 05:15:42;;;;;;;18.98;8.85;;;8.70;99.90;;;;;;5010011;28;20026;-75
2023/02/04 05:18:08;;;;;;;25.42;9.88;;;8.70;99.90;;;;;;5016723;28;20108;-75
2023/02/04 05:20:33;;;;;;;25.42;10.50;;;8.80;99.90;;;;;;5009327;28;20379;-78
2023/02/04 05:23:02;;;;;;;28.00;11.23;;;8.80;99.90;;;;;;5013894;28;20152;-78
2023/02/04 05:25:28;;;;;;;26.05;9.68;;;8.80;99.90;;;;;;5012962;28;20025;-78
2023/02/04 05:27:54;;;;;;;27.48;10.43;;;8.80;99.90;;;;;;5010807;28;20022;-77
2023/02/04 05:30:19;;;;;;;21.85;9.50;;;8.80;99.90;;;;;;5014889;28;20049;-80
2023/02/04 05:32:45;;;;;;;24.90;9.70;;;8.80;99.90;;;;;;5012932;28;20026;-79
2023/02/04 05:35:10;;;;;;;28.88;10.13;;;8.80;99.90;;;;;;5011533;28;20034;-79
2023/02/04 05:37:36;;;;;;;28.23;10.30;;;8.80;99.90;;;;;;5009297;28;20556;-79
2023/02/04 05:40:02;;;;;;;27.38;10.23;;;8.70;99.90;;;;;;5013924;28;20025;-76
2023/02/04 05:42:27;;;;;;;26.48;10.40;;;8.80;99.90;;;;;;5006599;28;20080;-79
2023/02/04 05:44:53;;;;;;;20.60;8.80;;;8.70;99.90;;;;;;5014853;28;20473;-77
2023/02/04 05:47:19;;;;;;;26.15;10.35;;;8.70;99.90;;;;;;5007257;28;20116;-75
2023/02/04 05:49:45;;;;;;;23.10;9.85;;;8.70;99.90;;;;;;5014421;28;20034;-79
2023/02/04 05:52:11;;;;;;;25.23;9.65;;;8.70;99.90;;;;;;5009544;28;20437;-79
2023/02/04 05:54:36;;;;;;;23.13;9.23;;;8.70;99.90;;;;;;5012916;28;20018;-80
2023/02/04 05:57:02;;;;;;;26.05;9.98;;;8.60;99.90;;;;;;5015409;28;20044;-79
2023/02/04 05:59:28;;;;;;;20.15;9.20;;;8.60;99.90;;;;;;5014369;28;20121;-80
2023/02/04 06:01:53;;;;;;;29.88;10.20;;;8.60;99.90;;;;;;5017106;28;20024;-75
2023/02/04 06:04:19;;;;;;;36.20;11.68;;;8.50;99.90;;;;;;5005439;28;20042;-79
2023/02/04 06:06:44;;;;;;;29.30;10.80;;;8.50;99.90;;;;;;5014078;28;20026;-79
2023/02/04 06:09:10;;;;;;;28.17;9.43;;;8.60;99.90;;;;;;5007771;28;20081;-80
2023/02/04 06:11:36;;;;;;;30.70;11.90;;;8.50;99.90;;;;;;5010671;28;20029;-73
2023/02/04 06:14:01;;;;;;;34.75;11.80;;;8.50;99.90;;;;;;5014351;28;20022;-78
2023/02/04 06:16:27;;;;;;;36.90;12.30;;;8.50;99.90;;;;;;5009570;28;20037;-78
2023/02/04 06:18:52;;;;;;;41.65;12.73;;;8.40;99.90;;;;;;5012883;28;20033;-79
2023/02/04 06:21:18;;;;;;;31.73;12.27;;;8.30;99.90;;;;;;5009493;28;20026;-78
2023/02/04 06:23:44;;;;;;;26.40;10.68;;;8.40;99.90;;;;;;5009961;28;20028;-75
2023/02/04 06:26:09;;;;;;;31.13;11.00;;;8.40;99.90;;;;;;5009370;28;20057;-79
2023/02/04 06:28:35;;;;;;;26.40;10.52;;;8.40;99.90;;;;;;5013253;28;20022;-75
2023/02/04 06:31:01;;;;;;;37.65;11.60;;;8.40;99.90;;;;;;5008928;28;20042;-71
2023/02/04 06:33:26;;;;;;;37.60;11.50;;;8.40;99.90;;;;;;5011267;28;20034;-71
2023/02/04 06:35:52;;;;;;;28.67;11.20;;;8.30;99.90;;;;;;5012784;28;20033;-71
2023/02/04 06:38:18;;;;;;;27.95;11.43;;;8.40;99.90;;;;;;5009361;28;20533;-71
2023/02/04 06:40:48;;;;;;;27.05;10.75;;;8.40;99.90;;;;;;5007462;28;20049;-71
2023/02/04 06:43:16;;;;;;;20.95;10.45;;;8.40;99.90;;;;;;5012103;28;20064;-71
2023/02/04 06:45:42;;;;;;;19.73;8.93;;;8.40;99.90;;;;;;5013191;28;20037;-71
2023/02/04 06:48:07;;;;;;;27.73;9.45;;;8.40;99.90;;;;;;5014287;28;20429;-71
2023/02/04 06:50:33;;;;;;;23.08;9.98;;;8.40;99.90;;;;;;5010617;28;20033;-76
2023/02/04 06:52:58;;;;;;;25.50;9.50;;;8.30;99.90;;;;;;5008615;28;20029;-72
2023/02/04 06:55:24;;;;;;;34.53;11.55;;;8.30;99.90;;;;;;5008657;28;20384;-78
2023/02/04 06:57:50;;;;;;;35.83;12.00;;;8.40;99.90;;;;;;5013048;28;20030;-78
2023/02/04 07:00:15;;;;;;;39.95;13.02;;;8.40;99.90;;;;;;5007808;28;20026;-76
2023/02/04 07:02:41;;;;;;;41.00;13.15;;;8.40;99.90;;;;;;5011093;28;20040;-71
2023/02/04 07:05:07;;;;;;;45.80;13.70;;;8.50;99.90;;;;;;5012533;28;20029;-76
2023/02/04 07:07:33;;;;;;;35.40;12.98;;;8.40;99.90;;;;;;5006337;28;20026;-77
2023/02/04 07:09:59;;;;;;;26.05;11.25;;;8.50;99.90;;;;;;5011652;28;20021;-73
2023/02/04 07:12:24;;;;;;;80.57;18.13;;;8.50;99.90;;;;;;5012008;28;20041;-72
2023/02/04 07:14:50;;;;;;;43.05;14.07;;;8.40;99.90;;;;;;5005811;28;20094;-79
2023/02/04 07:17:15;;;;;;;37.88;14.95;;;8.50;99.90;;;;;;5008983;28;20394;-74
2023/02/04 07:19:41;;;;;;;37.60;15.07;;;8.40;99.90;;;;;;5012774;28;20053;-79
2023/02/04 07:22:07;;;;;;;46.75;16.42;;;8.40;99.90;;;;;;5011960;28;20056;-80
2023/02/04 07:24:32;;;;;;;50.67;16.75;;;8.40;99.90;;;;;;5008849;28;20079;-80
2023/02/04 07:26:58;;;;;;;36.13;15.60;;;8.40;99.90;;;;;;5008238;28;20093;-80
2023/02/04 07:29:24;;;;;;;38.83;14.80;;;8.40;99.90;;;;;;5007670;28;20041;-77
2023/02/04 07:31:51;;;;;;;42.70;15.20;;;8.50;99.90;;;;;;5009427;28;20029;-80
2023/02/04 07:34:17;;;;;;;39.55;16.83;;;8.50;99.90;;;;;;5007466;28;20085;-80
2023/02/04 07:36:43;;;;;;;39.60;15.63;;;8.50;99.90;;;;;;5005517;28;20034;-80
2023/02/04 07:39:09;;;;;;;40.83;15.98;;;8.60;99.90;;;;;;5012474;28;20412;-79
2023/02/04 07:41:35;;;;;;;40.20;16.83;;;8.60;99.90;;;;;;5006652;28;20105;-78
2023/02/04 07:44:01;;;;;;;39.55;16.38;;;8.50;99.90;;;;;;5010222;28;20049;-79
2023/02/04 07:46:27;;;;;;;45.15;17.70;;;8.60;99.90;;;;;;5012982;28;20053;-79
2023/02/04 07:48:52;;;;;;;45.42;18.02;;;8.60;99.90;;;;;;5009947;28;20586;-79
2023/02/04 07:51:18;;;;;;;44.03;17.77;;;8.60;99.90;;;;;;5006272;28;20029;-79
2023/02/04 07:53:43;;;;;;;40.63;17.13;;;8.60;99.90;;;;;;5011936;28;20041;-73
2023/02/04 07:56:09;;;;;;;57.10;20.00;;;8.60;99.90;;;;;;5004652;28;20034;-79
2023/02/04 07:58:35;;;;;;;48.53;18.75;;;8.60;99.90;;;;;;5010069;28;20033;-79
2023/02/04 08:01:01;;;;;;;44.20;17.63;;;8.60;99.90;;;;;;5009507;28;20083;-79
2023/02/04 08:03:26;;;;;;;45.55;16.80;;;8.50;99.90;;;;;;5014936;28;20056;-79
2023/02/04 08:05:52;;;;;;;58.08;19.30;;;8.60;99.90;;;;;;5006228;28;20010;-78
2023/02/04 08:08:18;;;;;;;76.00;20.65;;;8.70;99.90;;;;;;5009641;28;20018;-79
2023/02/04 08:10:43;;;;;;;61.63;21.25;;;8.60;99.90;;;;;;5006244;28;20479;-79
2023/02/04 08:13:09;;;;;;;49.70;21.48;;;8.70;99.90;;;;;;5010129;28;20022;-79
2023/02/04 08:15:35;;;;;;;83.20;25.95;;;8.80;99.90;;;;;;5010723;28;20406;-77
2023/02/04 08:18:00;;;;;;;57.55;21.20;;;8.80;99.90;;;;;;5007671;28;20041;-76
2023/02/04 08:20:26;;;;;;;63.92;21.23;;;8.70;99.90;;;;;;5011326;28;20404;-80
2023/02/04 08:22:52;;;;;;;56.28;21.85;;;8.70;99.90;;;;;;5011167;28;20034;-68
2023/02/04 08:25:17;;;;;;;55.05;21.63;;;8.80;99.90;;;;;;5006771;28;20076;-71
2023/02/04 08:27:43;;;;;;;60.28;22.35;;;8.90;99.90;;;;;;5012203;28;20308;-68
2023/02/04 08:30:09;;;;;;;61.13;23.10;;;8.80;99.90;;;;;;5007386;28;20037;-68
2023/02/04 08:32:35;;;;;;;51.67;21.23;;;8.90;99.90;;;;;;5008243;28;20039;-68
2023/02/04 08:35:01;;;;;;;48.83;22.60;;;8.90;99.90;;;;;;5013457;28;20496;-74
2023/02/04 08:37:27;;;;;;;51.70;23.38;;;8.90;99.90;;;;;;5005222;28;20502;-73
2023/02/04 08:39:52;;;;;;;54.97;24.02;;;9.00;99.90;;;;;;5008411;28;20031;-70
2023/02/04 08:42:18;;;;;;;75.03;28.95;;;9.00;99.90;;;;;;5009648;28;20014;-68
2023/02/04 08:44:44;;;;;;;67.22;26.20;;;9.00;99.90;;;;;;5009356;28;20030;-70
2023/02/04 08:47:10;;;;;;;50.25;21.50;;;9.00;99.90;;;;;;5008699;28;20022;-74
2023/02/04 08:49:36;;;;;;;58.08;22.75;;;9.00;99.90;;;;;;5012434;28;20484;-72
2023/02/04 08:52:03;;;;;;;62.85;24.98;;;9.10;99.90;;;;;;5003654;28;20030;-71
2023/02/04 08:54:30;;;;;;;70.45;27.17;;;9.00;99.90;;;;;;5011567;28;20029;-75
2023/02/04 08:56:55;;;;;;;57.60;24.33;;;9.10;99.90;;;;;;5004322;28;20041;-69
2023/02/04 08:59:22;;;;;;;59.40;26.38;;;9.10;99.90;;;;;;5006343;28;20383;-71
2023/02/04 09:01:51;;;;;;;60.78;25.80;;;9.20;99.90;;;;;;5004172;28;20529;-71
2023/02/04 09:04:20;;;;;;;59.17;24.55;;;9.30;99.90;;;;;;4987034;28;20030;-70
2023/02/04 09:06:46;;;;;;;59.17;21.45;;;9.30;99.90;;;;;;4994458;28;20048;-71
2023/02/04 09:09:12;;;;;;;66.90;23.45;;;9.40;99.90;;;;;;5007795;28;20104;-71
2023/02/04 09:11:38;;;;;;;60.25;23.48;;;9.40;99.90;;;;;;5004141;28;20429;-72
2023/02/04 09:14:04;;;;;;;71.00;25.80;;;9.40;99.90;;;;;;5001435;28;20030;-69
2023/02/04 09:16:30;;;;;;;71.75;25.27;;;9.40;99.90;;;;;;5003625;28;20498;-70
2023/02/04 09:18:57;;;;;;;63.28;26.42;;;9.40;99.90;;;;;;5002770;28;20031;-70
2023/02/04 09:21:23;;;;;;;67.25;26.75;;;9.50;99.90;;;;;;5001155;28;21044;-69
2023/02/04 09:23:49;;;;;;;64.53;25.70;;;9.50;99.90;;;;;;5004092;28;20121;-72
2023/02/04 09:26:14;;;;;;;73.88;26.85;;;9.60;99.90;;;;;;5000982;28;20026;-73
2023/02/04 09:28:40;;;;;;;68.25;25.50;;;9.60;99.90;;;;;;5005888;28;20030;-71
2023/02/04 09:31:06;;;;;;;74.10;27.80;;;9.60;99.90;;;;;;5002576;28;21461;-69
2023/02/04 09:33:32;;;;;;;73.43;27.08;;;9.60;99.90;;;;;;5006619;28;20034;-72
2023/02/04 09:35:58;;;;;;;87.82;29.60;;;9.70;99.90;;;;;;5006497;28;20065;-72
2023/02/04 09:38:24;;;;;;;84.93;29.90;;;9.70;99.90;;;;;;5003162;28;20572;-73
2023/02/04 09:40:56;;;;;;;81.18;29.38;;;9.70;99.90;;;;;;5003119;28;20037;-76
2023/02/04 09:43:29;;;;;;;90.32;28.95;;;9.80;99.90;;;;;;5000374;28;20033;-68
2023/02/04 09:45:55;;;;;;;83.38;29.10;;;9.80;99.90;;;;;;5001303;28;20026;-76
2023/02/04 09:48:23;;;;;;;90.40;29.52;;;9.90;99.90;;;;;;5003906;28;20013;-72
2023/02/04 09:50:49;;;;;;;81.25;27.10;;;9.90;99.90;;;;;;5005693;28;20026;-71
2023/02/04 09:53:20;;;;;;;86.03;28.70;;;9.90;99.90;;;;;;5005002;28;20038;-75
2023/02/04 09:55:47;;;;;;;78.90;28.95;;;10.00;99.90;;;;;;5004050;28;20118;-69
2023/02/04 09:58:19;;;;;;;73.40;27.40;;;10.00;99.90;;;;;;5005700;28;20038;-68
2023/02/04 10:01:18;;;;;;;94.38;28.90;;;10.10;99.90;;;;;;5005470;28;20030;-69
2023/02/04 10:03:46;;;;;;;102.50;30.55;;;10.10;99.90;;;;;;5003115;28;20509;-76
2023/02/04 10:06:22;;;;;;;88.70;28.88;;;10.20;99.90;;;;;;5004478;28;20049;-69
2023/02/04 10:08:49;;;;;;;92.78;28.92;;;10.20;99.90;;;;;;5004358;28;20018;-67
2023/02/04 10:11:17;;;;;;;84.35;28.90;;;10.20;99.90;;;;;;5001482;28;20064;-70
2023/02/04 10:13:46;;;;;;;80.75;29.85;;;10.20;99.90;;;;;;5002318;28;20030;-69
2023/02/04 10:16:15;;;;;;;90.03;30.58;;;10.30;99.90;;;;;;5000060;28;20026;-72
2023/02/04 10:18:42;;;;;;;90.50;29.83;;;10.30;99.90;;;;;;5009281;28;20037;-72
2023/02/04 10:21:20;;;;;;;75.82;24.55;;;10.30;99.90;;;;;;5004721;28;20029;-70
2023/02/04 10:23:52;;;;;;;71.13;24.95;;;10.40;99.90;;;;;;5003030;28;20104;-70
2023/02/04 10:26:20;;;;;;;87.68;26.83;;;10.40;99.90;;;;;;5004804;28;20029;-68
2023/02/04 10:28:48;;;;;;;74.50;25.88;;;10.40;99.90;;;;;;5002721;28;20057;-68
2023/02/04 10:31:29;;;;;;;75.47;26.08;;;10.50;99.90;;;;;;5002535;28;20022;-68
2023/02/04 10:34:12;;;;;;;74.88;26.17;;;10.50;99.90;;;;;;5002068;28;20124;-74
2023/02/04 10:36:38;;;;;;;;;;;10.50;99.90;;;;;;5003865;28;20030;-72
2023/02/04 10:39:26;;;;;;;67.72;23.45;;;10.50;99.90;;;;;;5002572;28;19909;-76
2023/02/04 10:41:54;;;;;;;65.50;21.83;;;10.50;99.90;;;;;;5004971;28;20022;-73
2023/02/04 10:44:31;;;;;;;66.90;23.55;;;10.60;99.90;;;;;;5003823;28;20356;-71
2023/02/04 10:47:16;;;;;;;68.88;23.35;;;10.60;99.90;;;;;;5000044;28;20049;-70
2023/02/04 10:49:55;;;;;;;66.43;23.70;;;10.60;99.90;;;;;;5002773;28;20023;-72
2023/02/04 10:52:25;;;;;;;63.63;24.15;;;10.60;99.90;;;;;;5006049;28;20103;-69
2023/02/04 10:54:51;;;;;;;68.00;22.80;;;10.60;99.90;;;;;;4998744;28;20064;-68
2023/02/04 10:57:22;;;;;;;60.03;24.95;;;10.70;99.90;;;;;;5000169;28;20129;-76
2023/02/04 10:59:50;;;;;;;67.80;24.58;;;10.70;99.90;;;;;;5002186;28;20033;-78
2023/02/04 11:02:48;;;;;;;67.07;22.73;;;10.70;99.90;;;;;;5005790;28;20065;-73
2023/02/04 11:05:22;;;;;;;70.88;24.42;;;10.70;99.90;;;;;;4995555;28;20041;-69
2023/02/04 11:07:49;;;;;;;78.43;23.85;;;10.70;99.90;;;;;;5002030;28;20022;-70
2023/02/04 11:10:20;;;;;;;69.72;24.35;;;10.80;99.90;;;;;;5000482;28;20038;-70
2023/02/04 11:13:00;;;;;;;65.57;21.77;;;10.80;99.90;;;;;;5003441;28;20053;-70
2023/02/04 11:15:46;;;;;;;58.08;19.20;;;10.80;99.90;;;;;;5003649;28;20164;-81
2023/02/04 11:18:20;;;;;;;58.65;20.25;;;10.90;99.90;;;;;;5005761;28;20060;-74
2023/02/04 11:20:51;;;;;;;58.95;19.90;;;10.90;99.90;;;;;;5015648;28;20025;-73
2023/02/04 11:23:28;;;;;;;61.88;19.40;;;10.80;99.90;;;;;;5002402;28;20471;-80
2023/02/04 11:26:13;;;;;;;59.22;19.27;;;10.90;99.90;;;;;;4999904;28;20026;-76
2023/02/04 11:28:56;;;;;;;52.10;17.08;;;11.00;99.90;;;;;;5001424;28;20028;-69
2023/02/04 11:31:21;;;;;;;60.22;18.98;;;11.00;99.90;;;;;;4998688;28;20017;-69
2023/02/04 11:33:49;;;;;;;57.63;18.23;;;11.10;99.90;;;;;;5017235;28;20419;-78
2023/02/04 11:36:16;;;;;;;55.40;18.65;;;11.10;99.90;;;;;;5004335;28;20026;-75
2023/02/04 11:38:48;;;;;;;54.20;18.20;;;11.20;99.90;;;;;;4997461;28;20042;-73
2023/02/04 11:41:20;;;;;;;52.70;19.08;;;11.20;99.90;;;;;;5000049;28;22656;-72
2023/02/04 11:43:49;;;;;;;58.78;20.00;;;11.10;99.90;;;;;;5002936;28;20084;-69
2023/02/04 11:46:16;;;;;;;54.83;16.95;;;11.10;99.90;;;;;;5004284;28;20048;-70
2023/02/04 11:48:42;;;;;;;57.55;17.45;;;11.10;99.90;;;;;;5011851;28;20033;-69
2023/02/04 11:51:19;;;;;;;56.47;17.55;;;11.10;99.90;;;;;;5009281;28;20076;-69
2023/02/04 11:53:50;;;;;;;47.60;16.27;;;11.10;99.90;;;;;;5009945;28;20029;-70
2023/02/04 11:56:21;;;;;;;58.85;16.60;;;11.20;99.90;;;;;;5008183;28;20080;-71
2023/02/04 11:58:48;;;;;;;46.28;15.07;;;11.30;99.90;;;;;;5007669;28;20034;-69
2023/02/04 12:01:28;;;;;;;46.03;15.55;;;11.20;99.90;;;;;;5007947;28;20062;-79
2023/02/04 12:04:03;;;;;;;50.20;14.38;;;11.30;99.90;;;;;;5004658;28;20096;-76
2023/02/04 12:06:31;;;;;;;49.65;16.48;;;11.30;99.90;;;;;;5012784;28;20053;-77
2023/02/04 12:09:05;;;;;;;55.70;15.32;;;11.40;99.90;;;;;;5004542;28;20485;-74
2023/02/04 12:11:31;;;;;;;45.90;16.88;;;11.40;99.90;;;;;;5011850;28;20410;-77
2023/02/04 12:14:05;;;;;;;46.92;16.17;;;11.50;99.90;;;;;;5012332;28;20026;-75
2023/02/04 12:16:45;;;;;;;45.25;15.93;;;11.60;99.90;;;;;;5010281;28;20478;-69
2023/02/04 12:19:11;;;;;;;50.95;17.45;;;11.60;99.90;;;;;;5012371;28;20022;-76
2023/02/04 12:21:37;;;;;;;41.78;16.70;;;11.70;99.90;;;;;;5004773;28;20072;-75
2023/02/04 12:24:03;;;;;;;46.53;15.25;;;11.80;99.90;;;;;;5005515;28;20116;-75
2023/02/04 12:26:29;;;;;;;46.10;16.20;;;11.70;99.90;;;;;;5012095;28;20114;-75
2023/02/04 12:28:55;;;;;;;46.03;16.00;;;11.80;99.90;;;;;;5006012;28;20465;-76
2023/02/04 12:31:20;;;;;;;43.83;15.52;;;11.80;99.90;;;;;;5009393;28;20100;-78
2023/02/04 12:33:46;;;;;;;39.47;14.52;;;11.90;99.90;;;;;;5009174;28;20498;-77
2023/02/04 12:36:12;;;;;;;47.92;16.13;;;11.90;99.90;;;;;;5006023;28;20029;-75
2023/02/04 12:38:38;;;;;;;42.33;13.18;;;12.00;99.90;;;;;;5009714;28;20030;-74